• Join FlightAware (Why Join?)
  • Login
  • US Flag 
04:40PM EDT


 

Airport Tracker/Info


-or-


 

Live Flight TrackerFlight Track Log ✈ SWA2202 ✈ 20-Apr-2013 ✈ KBNA - KMDW

Flight Track Log - Related Links

Times and Time Zones

All times are in EDT time to prevent confusion due to time zone crossing. See the SWA2202 flight status page for this flight to view local times or setup timezone preferences in your user account.

Time Position Orientation Groundspeed Altitude Reporting Facility
EDT Latitude Longitude Course Direction KTS MPH feet Rate Location/Type
04:35PM 36.2000 -86.6500 15° North 215 247 4,600  Level Nashville TRACON
04:36PM 36.2833 -86.6167 18° North 281 323 8,800 3,120 Climbing Nashville TRACON
04:37PM 36.3594 -86.5767 23° Northeast 301 346 11,400 2,940 Climbing Memphis Center
04:38PM 36.4500 -86.5361 20° North 324 373 14,600 3,120 Climbing Memphis Center
04:39PM 36.5444 -86.4903 21° North 343 395 17,700 2,760 Climbing Memphis Center
04:40PM 36.6428 -86.4417 22° Northeast 366 421 20,200 2,460 Climbing Memphis Center
04:41PM 36.7372 -86.3931 22° Northeast 390 449 22,600 2,280 Climbing Memphis Center
04:42PM 36.8461 -86.3411 21° North 401 461 24,800 2,160 Climbing Memphis Center
04:43PM 36.9586 -86.2836 22° Northeast 425 489 27,000 1,680 Climbing Memphis Center
04:45PM 37.1736 -86.1747 22° Northeast 456 525 29,700 1,800 Climbing Indianapolis Center
04:46PM 37.2900 -86.1122 23° Northeast 453 521 32,200 1,560 Climbing Indianapolis Center
04:47PM 37.4203 -86.0247 28° Northeast 452 520 33,000 360 Climbing Indianapolis Center
04:48PM 37.5325 -85.9514 27° Northeast 451 519 33,000  Level Indianapolis Center
04:49PM 37.6519 -85.8936 21° North 441 507 33,000  Level Indianapolis Center
04:50PM 37.7683 -85.8975 358° North 414 476 33,000  Level Indianapolis Center
04:51PM 37.8869 -85.9039 358° North 424 488 33,000  Level Indianapolis Center
04:52PM 38.0042 -85.9103 358° North 423 487 33,000  Level Indianapolis Center
04:53PM 38.1219 -85.9167 358° North 423 487 33,000  Level Indianapolis Center
04:54PM 38.2403 -85.9233 357° North 424 488 33,000  Level Indianapolis Center
04:55PM 38.3564 -85.9292 358° North 419 482 33,000  Level Indianapolis Center
04:56PM 38.4728 -85.9361 357° North 418 481 33,000  Level Indianapolis Center
04:57PM 38.5900 -85.9444 357° North 420 483 33,000  Level Indianapolis Center
04:58PM 38.7056 -85.9497 358° North 417 480 33,000  Level Indianapolis Center
04:59PM 38.8444 -85.9583 357° North 417 480 33,000 -240 Level Indianapolis Center
05:00PM 38.9622 -85.9653 357° North 421 484 32,600 -720 Descending Indianapolis Center
05:01PM 39.0800 -85.9706 358° North 421 484 31,600 -960 Descending Indianapolis Center
05:02PM 39.1992 -85.9789 357° North 427 491 30,700 -900 Descending Indianapolis Center
05:03PM 39.3156 -85.9858 357° North 420 483 29,800 -960 Descending Indianapolis Center
05:04PM 39.4322 -85.9925 357° North 419 482 28,800 -1,020 Descending Indianapolis Center
05:05PM 39.5469 -85.9981 358° North 414 476 27,800 -1,020 Descending Indianapolis Center
05:06PM 39.6611 -86.0061 357° North 411 473 26,800 -1,080 Descending Indianapolis Center
05:07PM 39.7731 -86.0122 358° North 404 465 25,700 -1,080 Descending Indianapolis Center
05:08PM 39.8811 -86.0192 357° North 393 452 24,700 -840 Descending Indianapolis Center
05:09PM 40.0103 -86.0269 357° North 386 444 24,000 -360 Descending Indianapolis Center
05:10PM 40.1139 -86.0331 357° North 377 434 24,000 -360 Level Indianapolis Center
05:11PM 40.1675 -86.0361 358° North 378 435 23,400 -600 Descending Chicago Center
05:12PM 40.2642 -86.0647 347° North 358 412 23,000 -240 Descending Chicago Center
05:13PM 40.3742 -86.1178 340° North 351 404 23,000  Level Chicago Center
05:14PM 40.4678 -86.1592 341° North 356 410 23,000 -780 Level Chicago Center
05:15PM 40.5597 -86.2019 341° North 352 405 21,500 -1,680 Descending Chicago Center
05:16PM 40.6472 -86.2433 340° North 333 383 19,600 -1,860 Descending Chicago Center
05:17PM 40.7319 -86.2839 340° North 325 374 17,700 -1,920 Descending Chicago Center
05:18PM 40.8169 -86.3231 341° North 324 373 15,700 -1,980 Descending Chicago Center
05:19PM 40.8989 -86.3617 340° North 314 361 13,700 -1,920 Descending Chicago Center
05:20PM 40.9778 -86.3997 340° North 303 349 11,800 -1,320 Descending Chicago Center
05:21PM 41.0569 -86.4533 333° Northwest 279 321 11,000 -420 Descending Chicago Center
05:22PM 41.0953 -86.5475 298° West 289 333 11,000 -540 Level Chicago Center
05:23PM 41.1436 -86.6308 308° West 287 330 10,000 -540 Descending Chicago Center
05:24PM 41.1983 -86.7072 314° West 287 330 10,000  Level Chicago Center
05:25PM 41.2542 -86.7844 314° West 286 329 10,000  Level Chicago Center
05:26PM 41.3072 -86.8625 312° West 286 329 10,000 -360 Level Chicago Center
05:28PM 41.3594 -86.9344 314° West 278 320 9,300 -1,200 Descending Chicago Center
05:29PM 41.4158 -87.0172 312° West 258 297 7,600 -1,620 Descending Chicago Center
05:30PM 41.4647 -87.0853 314° West 256 295 6,000 -1,020 Descending Chicago Center
05:30PM 41.5000 -87.1500 306° West 249 287 5,900 -660 Descending Chicago TRACON
05:31PM 41.5000 -87.2333 270° West 248 285 4,900 -960 Descending Chicago TRACON
05:32PM 41.5167 -87.3167 285° West 245 282 4,000 -540 Descending Chicago TRACON
05:33PM 41.5167 -87.4167 270° West 247 284 3,900 -120 Descending Chicago TRACON
05:34PM 41.5225 -87.4328 296° West 247 284 3,900  Level Chicago Center
05:35PM 41.5297 -87.5231 276° West 247 284 3,900  Level Chicago Center
05:36PM 41.5564 -87.6219 290° West 253 291 3,900  Level Chicago Center
05:37PM 41.6039 -87.6892 313° West 253 291 3,900 60 Level Chicago Center
05:37PM 41.6333 -87.7333 312° West 247 284 4,000 -300 Climbing Chicago TRACON
05:38PM 41.6833 -87.7833 323° Northwest 222 255 3,500 -780 Descending Chicago TRACON
05:39PM 41.7167 -87.8333 312° West 187 215 2,500 -960 Descending Chicago TRACON
05:40PM 41.7500 -87.8000 37° Northeast 130 150 1,600 -840 Descending Chicago TRACON
05:41PM 41.7667 -87.7667 56° Northeast 125 144 900 -720 Descending Chicago TRACON